createdAt,value
2018-12-13T00:04:29.332Z,47.09
2018-12-13T00:09:32.666Z,47.02
2018-12-13T00:14:35.961Z,47.19
2018-12-13T00:19:39.281Z,47.08
2018-12-13T00:24:42.576Z,46.95
2018-12-13T00:29:45.875Z,47.19
2018-12-13T00:34:49.191Z,47.51
2018-12-13T00:39:52.548Z,47.27
2018-12-13T00:44:55.860Z,47.10
2018-12-13T00:49:59.170Z,46.92
2018-12-13T00:55:02.469Z,46.75
2018-12-13T01:00:06.432Z,46.85
2018-12-13T01:05:09.733Z,47.19
2018-12-13T01:10:13.081Z,47.34
2018-12-13T01:15:16.390Z,47.17
2018-12-13T01:20:19.680Z,47.39
2018-12-13T01:25:22.976Z,47.45
2018-12-13T01:30:26.271Z,47.33
2018-12-13T01:35:29.578Z,47.80
2018-12-13T01:40:32.873Z,47.37
2018-12-13T01:45:36.163Z,47.10
2018-12-13T01:50:39.461Z,46.62
2018-12-13T01:55:42.752Z,47.14
2018-12-13T02:00:46.068Z,47.14
2018-12-13T02:05:49.403Z,47.44
2018-12-13T02:10:52.713Z,47.66
2018-12-13T02:15:55.996Z,47.48
2018-12-13T02:20:59.300Z,47.38
2018-12-13T02:26:02.605Z,47.44
2018-12-13T02:31:05.942Z,48.05
2018-12-13T02:36:09.285Z,47.95
2018-12-13T02:41:12.594Z,48.05
2018-12-13T02:46:15.906Z,47.88
2018-12-13T02:51:19.210Z,47.46
2018-12-13T02:56:22.513Z,47.43
2018-12-13T03:01:25.808Z,47.39
2018-12-13T03:06:29.102Z,47.61
2018-12-13T03:11:32.412Z,47.73
2018-12-13T03:16:35.721Z,47.84
2018-12-13T03:21:39.031Z,48.19
2018-12-13T03:26:42.427Z,48.11
2018-12-13T03:31:45.735Z,48.28
2018-12-13T03:36:49.924Z,48.32
2018-12-13T03:41:53.212Z,48.61
2018-12-13T03:46:56.509Z,48.38
2018-12-13T03:51:59.822Z,48.16
2018-12-13T03:57:03.366Z,47.95
2018-12-13T04:02:06.656Z,48.08
2018-12-13T04:07:09.934Z,48.12
2018-12-13T04:12:13.233Z,48.25
2018-12-13T04:17:16.628Z,48.13
2018-12-13T04:22:19.909Z,47.92
2018-12-13T04:27:23.180Z,48.21
2018-12-13T04:32:26.462Z,48.38
2018-12-13T04:37:35.220Z,48.40
2018-12-13T04:42:35.062Z,48.70
2018-12-13T04:47:38.356Z,49.08
2018-12-13T04:52:41.676Z,47.88
2018-12-13T04:57:44.962Z,47.79
2018-12-13T05:02:48.285Z,48.18
2018-12-13T05:07:51.657Z,47.91
2018-12-13T05:12:55.140Z,47.99
2018-12-13T05:17:58.422Z,48.03
2018-12-13T05:23:01.720Z,48.24
2018-12-13T05:28:04.998Z,48.27
2018-12-13T05:33:08.345Z,48.31
2018-12-13T05:38:11.760Z,48.40
2018-12-13T05:43:15.091Z,47.99
2018-12-13T05:48:18.377Z,48.20
2018-12-13T05:53:21.652Z,47.99
2018-12-13T05:58:24.969Z,47.72
2018-12-13T06:03:28.245Z,47.87
2018-12-13T06:08:31.540Z,47.58
2018-12-13T06:13:34.818Z,47.88
2018-12-13T06:18:38.121Z,47.52
2018-12-13T06:23:41.404Z,47.70
2018-12-13T06:28:44.744Z,47.85
2018-12-13T06:33:48.186Z,47.78
2018-12-13T06:38:51.485Z,47.93
2018-12-13T06:43:54.770Z,47.78
2018-12-13T06:48:58.054Z,48.08
2018-12-13T06:54:01.333Z,48.23
2018-12-13T06:59:04.623Z,47.92
2018-12-13T07:04:07.905Z,47.78
2018-12-13T07:09:11.197Z,47.63
2018-12-13T07:14:14.492Z,47.47
2018-12-13T07:19:18.093Z,47.33
2018-12-13T07:24:21.368Z,47.47
2018-12-13T07:29:24.640Z,47.88
2018-12-13T07:34:27.968Z,48.06
2018-12-13T07:39:31.248Z,48.22
2018-12-13T07:44:34.567Z,47.94
2018-12-13T07:49:38.053Z,48.17
2018-12-13T07:54:41.365Z,37.42
2018-12-13T07:59:45.382Z,37.23
2018-12-13T08:04:48.743Z,37.77
2018-12-13T08:09:52.049Z,36.40
2018-12-13T08:14:55.418Z,34.63
2018-12-13T08:19:58.708Z,36.11
2018-12-13T08:25:02.019Z,36.54
2018-12-13T08:30:06.631Z,36.69
2018-12-13T08:35:09.924Z,37.29
2018-12-13T08:40:13.226Z,36.46
2018-12-13T08:45:16.523Z,37.64
2018-12-13T08:50:19.895Z,37.90
2018-12-13T08:55:23.887Z,38.75
2018-12-13T09:00:27.186Z,38.70
2018-12-13T09:05:30.517Z,39.41
2018-12-13T09:10:33.827Z,39.71
2018-12-13T09:15:37.127Z,40.44
2018-12-13T09:20:41.922Z,40.47
2018-12-13T09:25:45.352Z,40.79
2018-12-13T09:30:48.646Z,41.20
2018-12-13T09:35:51.941Z,41.00
2018-12-13T09:40:55.224Z,41.07
2018-12-13T09:45:58.512Z,41.54
2018-12-13T09:51:01.804Z,41.66
2018-12-13T09:56:05.109Z,41.98
2018-12-13T10:01:08.413Z,42.18
2018-12-13T10:06:11.716Z,42.41
2018-12-13T10:11:15.016Z,42.56
2018-12-13T10:16:18.348Z,42.80
2018-12-13T10:21:21.729Z,42.99
2018-12-13T10:26:25.029Z,43.27
2018-12-13T10:31:28.400Z,42.91
2018-12-13T10:36:31.702Z,43.23
2018-12-13T10:41:35.006Z,42.97
2018-12-13T10:46:38.327Z,42.83
2018-12-13T10:51:41.744Z,43.38
2018-12-13T10:56:45.044Z,43.44
2018-12-13T11:01:53.642Z,43.34
2018-12-13T11:06:57.305Z,43.65
2018-12-13T11:12:00.658Z,43.87
2018-12-13T11:17:03.964Z,43.77
2018-12-13T11:22:07.313Z,43.66
2018-12-13T11:28:22.765Z,44.04
2018-12-13T11:33:26.078Z,43.46
2018-12-13T11:38:29.362Z,43.47
2018-12-13T11:43:32.644Z,43.54
2018-12-13T11:48:35.950Z,43.36
2018-12-13T11:53:39.276Z,43.65
2018-12-13T11:58:42.613Z,43.53
2018-12-13T12:03:45.941Z,43.96
2018-12-13T12:08:49.236Z,44.22
2018-12-13T12:13:52.537Z,44.00
2018-12-13T12:18:55.841Z,44.29
2018-12-13T12:23:59.176Z,43.99
2018-12-13T12:29:02.641Z,44.05
2018-12-13T12:34:05.947Z,43.86
2018-12-13T12:39:09.261Z,43.98
2018-12-13T12:44:12.574Z,43.61
2018-12-13T12:49:15.988Z,43.88
2018-12-13T12:54:19.265Z,44.30
2018-12-13T12:59:22.563Z,44.10
2018-12-13T13:04:25.856Z,44.00
2018-12-13T13:09:29.198Z,44.27
2018-12-13T13:14:32.523Z,44.62
2018-12-13T13:19:35.822Z,44.66
2018-12-13T13:24:39.166Z,44.15
2018-12-13T13:29:42.588Z,44.39
2018-12-13T13:34:45.897Z,44.25
2018-12-13T13:39:49.278Z,43.80
2018-12-13T13:44:56.708Z,44.08
2018-12-13T13:49:59.989Z,44.19
2018-12-13T13:55:03.393Z,44.20
2018-12-13T14:00:06.961Z,44.45
2018-12-13T14:05:10.677Z,44.38
2018-12-13T14:10:13.959Z,44.66
2018-12-13T14:15:17.248Z,44.80
2018-12-13T14:20:20.540Z,44.75
2018-12-13T14:25:23.824Z,44.48
2018-12-13T14:30:27.115Z,44.57
2018-12-13T14:35:30.399Z,44.52
2018-12-13T14:40:33.697Z,44.45
2018-12-13T14:45:36.996Z,44.47
2018-12-13T14:50:40.285Z,44.56
2018-12-13T14:55:43.685Z,44.83
2018-12-13T15:00:46.980Z,44.75
2018-12-13T15:05:50.266Z,44.86
2018-12-13T15:10:53.578Z,45.11
2018-12-13T15:15:56.924Z,45.37
2018-12-13T15:21:00.208Z,45.34
2018-12-13T15:26:03.512Z,45.47
2018-12-13T15:31:06.806Z,45.60
2018-12-13T15:36:10.098Z,45.40
2018-12-13T15:41:13.389Z,45.69
2018-12-13T15:46:16.668Z,45.98
2018-12-13T15:51:19.968Z,45.77
2018-12-13T15:56:23.251Z,45.78
2018-12-13T16:01:26.541Z,46.10
2018-12-13T16:06:29.830Z,46.11
2018-12-13T16:11:33.122Z,45.60
2018-12-13T16:16:36.422Z,45.86
2018-12-13T16:21:39.735Z,45.45
2018-12-13T16:26:43.045Z,45.79
2018-12-13T16:31:46.337Z,45.77
2018-12-13T16:36:49.680Z,45.69
2018-12-13T16:41:53.850Z,46.08
2018-12-13T16:46:57.178Z,45.84
2018-12-13T16:57:07.661Z,45.78
2018-12-13T17:02:10.958Z,46.02
2018-12-13T17:07:14.278Z,45.74
2018-12-13T17:12:17.607Z,46.25
2018-12-13T17:17:20.929Z,46.76
2018-12-13T17:22:24.230Z,46.73
2018-12-13T17:27:27.537Z,46.97
2018-12-13T17:32:30.838Z,46.52
2018-12-13T17:37:34.139Z,46.92
2018-12-13T17:42:37.465Z,46.82
2018-12-13T17:47:40.778Z,46.40
2018-12-13T17:52:44.074Z,46.40
2018-12-13T17:57:47.368Z,46.27
2018-12-13T18:02:50.673Z,46.37
2018-12-13T18:07:53.981Z,46.39
2018-12-13T18:12:57.278Z,46.71
2018-12-13T18:18:00.562Z,46.32
2018-12-13T18:23:03.845Z,46.46
2018-12-13T18:28:07.157Z,46.61
2018-12-13T18:33:10.453Z,46.39
2018-12-13T18:43:23.285Z,46.10
2018-12-13T18:48:26.573Z,46.19
2018-12-13T18:53:29.861Z,46.31
2018-12-13T18:58:33.247Z,46.00
2018-12-13T19:03:36.634Z,45.81
2018-12-13T19:08:39.921Z,45.92
2018-12-13T19:13:43.221Z,45.98
2018-12-13T19:18:46.510Z,45.71
2018-12-13T19:23:49.810Z,45.96
2018-12-13T19:28:53.128Z,45.78
2018-12-13T19:33:56.427Z,46.02
2018-12-13T19:38:59.709Z,45.84
2018-12-13T19:44:03.005Z,45.88
2018-12-13T19:49:06.354Z,45.87
2018-12-13T19:54:09.672Z,46.22
2018-12-13T19:59:13.009Z,46.07
2018-12-13T20:04:16.305Z,45.86
2018-12-13T20:09:19.597Z,45.96
2018-12-13T20:14:22.916Z,46.39
2018-12-13T20:19:26.206Z,46.08
2018-12-13T20:24:30.620Z,43.64
2018-12-13T20:29:34.344Z,43.20
2018-12-13T20:34:37.659Z,42.59
2018-12-13T20:39:40.953Z,43.67
2018-12-13T20:44:44.258Z,43.30
2018-12-13T20:49:47.569Z,43.63
2018-12-13T20:54:50.869Z,44.05
2018-12-13T20:59:54.160Z,44.47
2018-12-13T21:04:57.465Z,44.49
2018-12-13T21:10:00.859Z,44.82
2018-12-13T21:15:04.761Z,44.41
2018-12-13T21:20:08.077Z,44.85
2018-12-13T21:25:11.390Z,44.81
2018-12-13T21:30:14.703Z,44.72
2018-12-13T21:35:18.004Z,44.88
2018-12-13T21:40:21.305Z,44.87
2018-12-13T21:45:24.605Z,44.90
2018-12-13T21:50:27.905Z,44.98
2018-12-13T21:55:31.392Z,44.95
2018-12-13T22:00:34.701Z,45.04
2018-12-13T22:05:37.976Z,45.07
2018-12-13T22:10:41.270Z,45.29
2018-12-13T22:15:44.585Z,45.41
2018-12-13T22:20:47.903Z,45.45
2018-12-13T22:25:51.201Z,45.64
2018-12-13T22:30:54.510Z,45.33
2018-12-13T22:35:57.793Z,45.66
2018-12-13T22:41:01.089Z,45.65
2018-12-13T22:46:04.641Z,45.57
2018-12-13T22:51:07.939Z,45.39
2018-12-13T22:56:11.229Z,44.99
2018-12-13T23:01:14.601Z,45.04
2018-12-13T23:06:17.910Z,44.77
2018-12-13T23:11:21.210Z,45.03
2018-12-13T23:16:24.509Z,45.18
2018-12-13T23:21:27.818Z,45.24
2018-12-13T23:26:31.118Z,44.94
2018-12-13T23:31:34.423Z,45.02
2018-12-13T23:36:37.757Z,45.20
2018-12-13T23:41:41.041Z,45.05
2018-12-13T23:46:44.377Z,45.54
2018-12-13T23:51:47.717Z,45.60
2018-12-13T23:56:51.023Z,45.74
